sensor_id;sensor_type;location;lat;lon;timestamp;pressure;altitude;pressure_sealevel;temperature;humidity
30967;BME280;17649;51.836;8.330;2023-07-13T00:02:56;100811.81;;;17.82;nan
30967;BME280;17649;51.836;8.330;2023-07-13T00:06:00;100815.13;;;17.84;nan
30967;BME280;17649;51.836;8.330;2023-07-13T00:09:01;100820.06;;;17.77;nan
30967;BME280;17649;51.836;8.330;2023-07-13T00:12:02;100828.28;;;17.73;nan
30967;BME280;17649;51.836;8.330;2023-07-13T00:15:18;100832.09;;;17.69;nan
30967;BME280;17649;51.836;8.330;2023-07-13T00:18:22;100835.75;;;17.77;nan
30967;BME280;17649;51.836;8.330;2023-07-13T00:21:23;100835.53;;;17.69;nan
30967;BME280;17649;51.836;8.330;2023-07-13T00:24:23;100833.00;;;17.79;nan
30967;BME280;17649;51.836;8.330;2023-07-13T00:27:24;100831.59;;;17.75;nan
30967;BME280;17649;51.836;8.330;2023-07-13T00:30:26;100831.97;;;17.70;nan
30967;BME280;17649;51.836;8.330;2023-07-13T00:33:28;100827.06;;;17.77;nan
30967;BME280;17649;51.836;8.330;2023-07-13T00:36:30;100829.88;;;17.85;nan
30967;BME280;17649;51.836;8.330;2023-07-13T00:39:30;100819.03;;;18.10;nan
30967;BME280;17649;51.836;8.330;2023-07-13T00:42:31;100823.97;;;18.25;nan
30967;BME280;17649;51.836;8.330;2023-07-13T00:48:34;100837.81;;;18.36;nan
30967;BME280;17649;51.836;8.330;2023-07-13T00:51:44;100835.59;;;18.32;nan
30967;BME280;17649;51.836;8.330;2023-07-13T00:54:46;100834.63;;;18.12;nan
30967;BME280;17649;51.836;8.330;2023-07-13T00:57:46;100839.28;;;18.08;nan
30967;BME280;17649;51.836;8.330;2023-07-13T01:00:48;100837.56;;;18.18;nan
30967;BME280;17649;51.836;8.330;2023-07-13T01:03:49;100839.59;;;18.15;nan
30967;BME280;17649;51.836;8.330;2023-07-13T01:06:50;100829.72;;;18.18;nan
30967;BME280;17649;51.836;8.330;2023-07-13T01:09:51;100829.72;;;18.18;nan
30967;BME280;17649;51.836;8.330;2023-07-13T01:12:51;100831.75;;;18.36;nan
30967;BME280;17649;51.836;8.330;2023-07-13T01:15:53;100835.34;;;18.35;nan
30967;BME280;17649;51.836;8.330;2023-07-13T01:18:55;100830.34;;;18.32;nan
30967;BME280;17649;51.836;8.330;2023-07-13T01:21:58;100833.09;;;18.30;nan
30967;BME280;17649;51.836;8.330;2023-07-13T01:24:58;100827.63;;;18.43;nan
30967;BME280;17649;51.836;8.330;2023-07-13T01:27:59;100824.53;;;18.28;nan
30967;BME280;17649;51.836;8.330;2023-07-13T01:30:59;100823.06;;;18.14;nan
30967;BME280;17649;51.836;8.330;2023-07-13T01:34:01;100825.63;;;18.26;nan
30967;BME280;17649;51.836;8.330;2023-07-13T01:37:01;100827.81;;;18.21;nan
30967;BME280;17649;51.836;8.330;2023-07-13T01:40:03;100830.72;;;18.27;nan
30967;BME280;17649;51.836;8.330;2023-07-13T01:43:05;100824.47;;;18.18;nan
30967;BME280;17649;51.836;8.330;2023-07-13T01:46:05;100834.50;;;18.13;nan
30967;BME280;17649;51.836;8.330;2023-07-13T01:49:05;100846.19;;;18.09;nan
30967;BME280;17649;51.836;8.330;2023-07-13T01:52:06;100845.88;;;18.03;nan
30967;BME280;17649;51.836;8.330;2023-07-13T01:55:07;100849.50;;;17.91;nan
30967;BME280;17649;51.836;8.330;2023-07-13T01:58:08;100854.00;;;17.56;nan
30967;BME280;17649;51.836;8.330;2023-07-13T02:01:08;100854.16;;;17.44;nan
30967;BME280;17649;51.836;8.330;2023-07-13T02:04:08;100856.66;;;17.34;nan
30967;BME280;17649;51.836;8.330;2023-07-13T02:07:09;100856.09;;;17.08;nan
30967;BME280;17649;51.836;8.330;2023-07-13T02:10:10;100858.84;;;16.95;nan
30967;BME280;17649;51.836;8.330;2023-07-13T02:13:11;100854.22;;;16.77;nan
30967;BME280;17649;51.836;8.330;2023-07-13T02:16:11;100865.72;;;16.74;nan
30967;BME280;17649;51.836;8.330;2023-07-13T02:19:12;100864.16;;;16.60;nan
30967;BME280;17649;51.836;8.330;2023-07-13T02:22:12;100872.69;;;16.62;nan
30967;BME280;17649;51.836;8.330;2023-07-13T02:25:13;100866.59;;;16.51;nan
30967;BME280;17649;51.836;8.330;2023-07-13T02:28:14;100877.66;;;16.43;nan
30967;BME280;17649;51.836;8.330;2023-07-13T02:31:15;100873.00;;;16.35;nan
30967;BME280;17649;51.836;8.330;2023-07-13T02:34:16;100872.66;;;16.40;nan
30967;BME280;17649;51.836;8.330;2023-07-13T02:37:16;100877.03;;;16.28;nan
30967;BME280;17649;51.836;8.330;2023-07-13T02:40:16;100877.59;;;16.21;nan
30967;BME280;17649;51.836;8.330;2023-07-13T02:43:17;100872.13;;;16.13;nan
30967;BME280;17649;51.836;8.330;2023-07-13T02:46:17;100870.06;;;16.05;nan
30967;BME280;17649;51.836;8.330;2023-07-13T02:49:19;100877.22;;;16.14;nan
30967;BME280;17649;51.836;8.330;2023-07-13T02:52:19;100873.41;;;16.07;nan
30967;BME280;17649;51.836;8.330;2023-07-13T02:55:20;100877.75;;;15.95;nan
30967;BME280;17649;51.836;8.330;2023-07-13T02:58:20;100873.66;;;15.80;nan
30967;BME280;17649;51.836;8.330;2023-07-13T03:01:21;100884.41;;;15.75;nan
30967;BME280;17649;51.836;8.330;2023-07-13T03:04:22;100877.34;;;15.89;nan
30967;BME280;17649;51.836;8.330;2023-07-13T03:07:22;100882.63;;;15.76;nan
30967;BME280;17649;51.836;8.330;2023-07-13T03:10:23;100879.19;;;15.75;nan
30967;BME280;17649;51.836;8.330;2023-07-13T03:13:23;100883.06;;;15.70;nan
30967;BME280;17649;51.836;8.330;2023-07-13T03:16:23;100876.31;;;15.67;nan
30967;BME280;17649;51.836;8.330;2023-07-13T03:19:24;100879.53;;;15.71;nan
30967;BME280;17649;51.836;8.330;2023-07-13T03:22:24;100879.28;;;15.74;nan
30967;BME280;17649;51.836;8.330;2023-07-13T03:25:25;100871.81;;;15.69;nan
30967;BME280;17649;51.836;8.330;2023-07-13T03:28:25;100889.97;;;15.58;nan
30967;BME280;17649;51.836;8.330;2023-07-13T03:31:28;100888.53;;;15.54;nan
30967;BME280;17649;51.836;8.330;2023-07-13T03:34:30;100884.97;;;15.55;nan
30967;BME280;17649;51.836;8.330;2023-07-13T03:37:30;100891.38;;;15.51;nan
30967;BME280;17649;51.836;8.330;2023-07-13T03:40:31;100894.28;;;15.46;nan
30967;BME280;17649;51.836;8.330;2023-07-13T03:43:32;100891.25;;;15.52;nan
30967;BME280;17649;51.836;8.330;2023-07-13T03:46:32;100900.25;;;15.48;nan
30967;BME280;17649;51.836;8.330;2023-07-13T03:49:33;100907.72;;;15.53;nan
30967;BME280;17649;51.836;8.330;2023-07-13T03:52:35;100902.28;;;15.56;nan
30967;BME280;17649;51.836;8.330;2023-07-13T03:55:36;100896.69;;;15.62;nan
30967;BME280;17649;51.836;8.330;2023-07-13T03:58:39;100903.13;;;15.57;nan
30967;BME280;17649;51.836;8.330;2023-07-13T04:01:40;100906.44;;;15.71;nan
30967;BME280;17649;51.836;8.330;2023-07-13T04:04:40;100905.06;;;15.78;nan
30967;BME280;17649;51.836;8.330;2023-07-13T04:07:41;100907.78;;;15.77;nan
30967;BME280;17649;51.836;8.330;2023-07-13T04:10:43;100908.19;;;15.84;nan
30967;BME280;17649;51.836;8.330;2023-07-13T04:13:44;100912.44;;;15.85;nan
30967;BME280;17649;51.836;8.330;2023-07-13T04:16:44;100916.59;;;15.87;nan
30967;BME280;17649;51.836;8.330;2023-07-13T04:19:45;100922.69;;;15.75;nan
30967;BME280;17649;51.836;8.330;2023-07-13T04:22:46;100922.44;;;15.91;nan
30967;BME280;17649;51.836;8.330;2023-07-13T04:25:47;100924.09;;;15.92;nan
30967;BME280;17649;51.836;8.330;2023-07-13T04:28:51;100926.16;;;15.99;nan
30967;BME280;17649;51.836;8.330;2023-07-13T04:31:51;100927.38;;;16.06;nan
30967;BME280;17649;51.836;8.330;2023-07-13T04:34:51;100929.53;;;16.13;nan
30967;BME280;17649;51.836;8.330;2023-07-13T04:37:53;100941.53;;;16.15;nan
30967;BME280;17649;51.836;8.330;2023-07-13T04:40:59;100935.38;;;16.16;nan
30967;BME280;17649;51.836;8.330;2023-07-13T04:44:00;100935.41;;;16.27;nan
30967;BME280;17649;51.836;8.330;2023-07-13T04:47:00;100925.63;;;16.18;nan
30967;BME280;17649;51.836;8.330;2023-07-13T04:50:01;100926.16;;;16.23;nan
30967;BME280;17649;51.836;8.330;2023-07-13T04:53:01;100933.53;;;16.29;nan
30967;BME280;17649;51.836;8.330;2023-07-13T04:56:03;100920.59;;;16.28;nan
30967;BME280;17649;51.836;8.330;2023-07-13T04:59:04;100931.16;;;16.26;nan
30967;BME280;17649;51.836;8.330;2023-07-13T05:02:04;100930.13;;;16.40;nan
30967;BME280;17649;51.836;8.330;2023-07-13T05:05:06;100927.66;;;16.61;nan
30967;BME280;17649;51.836;8.330;2023-07-13T05:08:07;100917.47;;;16.58;nan
30967;BME280;17649;51.836;8.330;2023-07-13T05:11:08;100927.97;;;16.91;nan
30967;BME280;17649;51.836;8.330;2023-07-13T05:14:08;100924.31;;;16.83;nan
30967;BME280;17649;51.836;8.330;2023-07-13T05:17:10;100927.75;;;16.83;nan
30967;BME280;17649;51.836;8.330;2023-07-13T05:20:10;100935.59;;;16.94;nan
30967;BME280;17649;51.836;8.330;2023-07-13T05:23:10;100939.63;;;17.10;nan
30967;BME280;17649;51.836;8.330;2023-07-13T05:26:11;100931.56;;;16.90;nan
30967;BME280;17649;51.836;8.330;2023-07-13T05:29:11;100933.59;;;16.98;nan
30967;BME280;17649;51.836;8.330;2023-07-13T05:32:12;100946.66;;;16.98;nan
30967;BME280;17649;51.836;8.330;2023-07-13T05:35:12;100946.78;;;16.96;nan
30967;BME280;17649;51.836;8.330;2023-07-13T05:38:12;100950.09;;;17.10;nan
30967;BME280;17649;51.836;8.330;2023-07-13T05:41:13;100948.94;;;17.14;nan
30967;BME280;17649;51.836;8.330;2023-07-13T05:44:13;100957.81;;;17.22;nan
30967;BME280;17649;51.836;8.330;2023-07-13T05:47:14;100953.91;;;17.28;nan
30967;BME280;17649;51.836;8.330;2023-07-13T05:50:15;100960.09;;;17.16;nan
30967;BME280;17649;51.836;8.330;2023-07-13T05:53:15;100954.72;;;17.51;nan
30967;BME280;17649;51.836;8.330;2023-07-13T05:56:16;100957.69;;;17.57;nan
30967;BME280;17649;51.836;8.330;2023-07-13T05:59:17;100950.91;;;17.55;nan
30967;BME280;17649;51.836;8.330;2023-07-13T06:02:17;100963.66;;;17.48;nan
30967;BME280;17649;51.836;8.330;2023-07-13T06:05:18;100957.22;;;17.75;nan
30967;BME280;17649;51.836;8.330;2023-07-13T06:08:18;100964.09;;;17.87;nan
30967;BME280;17649;51.836;8.330;2023-07-13T06:11:21;100967.38;;;18.00;nan
30967;BME280;17649;51.836;8.330;2023-07-13T06:14:22;100969.66;;;17.94;nan
30967;BME280;17649;51.836;8.330;2023-07-13T06:17:22;100968.44;;;17.98;nan
30967;BME280;17649;51.836;8.330;2023-07-13T06:20:23;100966.47;;;17.90;nan
30967;BME280;17649;51.836;8.330;2023-07-13T06:23:24;100960.72;;;17.96;nan
30967;BME280;17649;51.836;8.330;2023-07-13T06:26:25;100960.75;;;18.49;nan
30967;BME280;17649;51.836;8.330;2023-07-13T06:29:27;100967.53;;;18.31;nan
30967;BME280;17649;51.836;8.330;2023-07-13T06:32:27;100963.03;;;18.42;nan
30967;BME280;17649;51.836;8.330;2023-07-13T06:35:27;100969.06;;;18.33;nan
30967;BME280;17649;51.836;8.330;2023-07-13T06:38:28;100959.41;;;18.55;nan
30967;BME280;17649;51.836;8.330;2023-07-13T06:41:28;100967.97;;;18.36;nan
30967;BME280;17649;51.836;8.330;2023-07-13T06:44:30;100967.00;;;18.69;nan
30967;BME280;17649;51.836;8.330;2023-07-13T06:47:30;100970.03;;;18.53;nan
30967;BME280;17649;51.836;8.330;2023-07-13T06:50:31;100966.16;;;18.68;nan
30967;BME280;17649;51.836;8.330;2023-07-13T06:53:31;100961.69;;;18.80;nan
30967;BME280;17649;51.836;8.330;2023-07-13T06:56:32;100972.38;;;18.67;nan
30967;BME280;17649;51.836;8.330;2023-07-13T06:59:32;100963.81;;;18.65;nan
30967;BME280;17649;51.836;8.330;2023-07-13T07:02:32;100978.75;;;18.74;nan
30967;BME280;17649;51.836;8.330;2023-07-13T07:05:33;100977.84;;;18.85;nan
30967;BME280;17649;51.836;8.330;2023-07-13T07:08:33;100968.66;;;18.91;nan
30967;BME280;17649;51.836;8.330;2023-07-13T07:11:34;100967.22;;;19.08;nan
30967;BME280;17649;51.836;8.330;2023-07-13T07:14:34;100981.38;;;19.26;nan
30967;BME280;17649;51.836;8.330;2023-07-13T07:17:35;100970.81;;;19.47;nan
30967;BME280;17649;51.836;8.330;2023-07-13T07:20:36;100984.16;;;19.55;nan
30967;BME280;17649;51.836;8.330;2023-07-13T07:23:37;100977.16;;;19.44;nan
30967;BME280;17649;51.836;8.330;2023-07-13T07:26:37;100978.25;;;19.42;nan
30967;BME280;17649;51.836;8.330;2023-07-13T07:29:37;100973.97;;;19.41;nan
30967;BME280;17649;51.836;8.330;2023-07-13T07:32:38;100979.81;;;19.14;nan
30967;BME280;17649;51.836;8.330;2023-07-13T07:35:38;100972.41;;;19.59;nan
30967;BME280;17649;51.836;8.330;2023-07-13T07:38:39;100977.69;;;19.78;nan
30967;BME280;17649;51.836;8.330;2023-07-13T07:41:39;100985.09;;;19.94;nan
30967;BME280;17649;51.836;8.330;2023-07-13T07:44:40;100984.09;;;19.85;nan
30967;BME280;17649;51.836;8.330;2023-07-13T07:47:41;100990.59;;;20.01;nan
30967;BME280;17649;51.836;8.330;2023-07-13T07:50:42;100974.56;;;20.04;nan
30967;BME280;17649;51.836;8.330;2023-07-13T07:53:42;100977.75;;;20.17;nan
30967;BME280;17649;51.836;8.330;2023-07-13T07:56:43;100979.59;;;20.45;nan
30967;BME280;17649;51.836;8.330;2023-07-13T07:59:43;100980.00;;;20.70;nan
30967;BME280;17649;51.836;8.330;2023-07-13T08:02:45;100974.47;;;20.53;nan
30967;BME280;17649;51.836;8.330;2023-07-13T08:05:45;100989.38;;;20.34;nan
30967;BME280;17649;51.836;8.330;2023-07-13T08:08:45;100980.13;;;20.59;nan
30967;BME280;17649;51.836;8.330;2023-07-13T08:11:46;100982.59;;;20.21;nan
30967;BME280;17649;51.836;8.330;2023-07-13T08:14:50;100984.00;;;20.25;nan
30967;BME280;17649;51.836;8.330;2023-07-13T08:17:53;100995.22;;;20.47;nan
30967;BME280;17649;51.836;8.330;2023-07-13T08:20:54;100976.94;;;20.65;nan
30967;BME280;17649;51.836;8.330;2023-07-13T08:23:56;100986.78;;;20.43;nan
30967;BME280;17649;51.836;8.330;2023-07-13T08:26:56;100990.19;;;20.05;nan
30967;BME280;17649;51.836;8.330;2023-07-13T08:29:57;100990.75;;;20.38;nan
30967;BME280;17649;51.836;8.330;2023-07-13T08:32:58;100975.13;;;20.75;nan
30967;BME280;17649;51.836;8.330;2023-07-13T08:35:58;100977.31;;;20.89;nan
30967;BME280;17649;51.836;8.330;2023-07-13T08:38:58;100976.94;;;20.74;nan
30967;BME280;17649;51.836;8.330;2023-07-13T08:42:02;100980.59;;;21.01;nan
30967;BME280;17649;51.836;8.330;2023-07-13T08:45:22;100984.41;;;21.26;nan
30967;BME280;17649;51.836;8.330;2023-07-13T08:48:27;100985.22;;;21.36;nan
30967;BME280;17649;51.836;8.330;2023-07-13T08:51:37;100981.72;;;21.72;nan
30967;BME280;17649;51.836;8.330;2023-07-13T08:54:49;100980.31;;;21.41;nan
30967;BME280;17649;51.836;8.330;2023-07-13T08:58:00;100981.50;;;21.56;nan
30967;BME280;17649;51.836;8.330;2023-07-13T09:01:27;100985.56;;;21.96;nan
30967;BME280;17649;51.836;8.330;2023-07-13T09:04:34;100976.72;;;21.42;nan
30967;BME280;17649;51.836;8.330;2023-07-13T09:10:49;100974.59;;;21.18;nan
30967;BME280;17649;51.836;8.330;2023-07-13T09:14:06;100978.81;;;21.01;nan
30967;BME280;17649;51.836;8.330;2023-07-13T09:17:26;100970.13;;;21.56;nan
30967;BME280;17649;51.836;8.330;2023-07-13T09:20:35;100979.25;;;21.89;nan
30967;BME280;17649;51.836;8.330;2023-07-13T09:23:38;100964.78;;;21.93;nan
30967;BME280;17649;51.836;8.330;2023-07-13T09:26:38;100967.56;;;22.19;nan
30967;BME280;17649;51.836;8.330;2023-07-13T09:29:41;100986.00;;;22.37;nan
30967;BME280;17649;51.836;8.330;2023-07-13T09:32:51;100979.50;;;22.49;nan
30967;BME280;17649;51.836;8.330;2023-07-13T09:35:51;100967.81;;;22.95;nan
30967;BME280;17649;51.836;8.330;2023-07-13T09:45:17;100984.97;;;22.02;nan
30967;BME280;17649;51.836;8.330;2023-07-13T09:48:33;100981.00;;;22.16;nan
30967;BME280;17649;51.836;8.330;2023-07-13T09:51:34;100981.09;;;22.24;nan
30967;BME280;17649;51.836;8.330;2023-07-13T09:54:36;100981.69;;;22.79;nan
30967;BME280;17649;51.836;8.330;2023-07-13T09:57:46;100978.25;;;22.61;nan
30967;BME280;17649;51.836;8.330;2023-07-13T10:00:58;100972.03;;;22.62;nan
30967;BME280;17649;51.836;8.330;2023-07-13T10:03:59;100975.19;;;22.66;nan
30967;BME280;17649;51.836;8.330;2023-07-13T10:07:12;100976.91;;;22.57;nan
30967;BME280;17649;51.836;8.330;2023-07-13T10:10:16;100983.84;;;22.58;nan
30967;BME280;17649;51.836;8.330;2023-07-13T10:13:41;100981.50;;;23.25;nan
30967;BME280;17649;51.836;8.330;2023-07-13T10:16:44;100988.28;;;23.01;nan
30967;BME280;17649;51.836;8.330;2023-07-13T10:19:47;100984.78;;;22.75;nan
30967;BME280;17649;51.836;8.330;2023-07-13T10:22:53;100985.16;;;23.06;nan
30967;BME280;17649;51.836;8.330;2023-07-13T10:25:54;100980.44;;;22.66;nan
30967;BME280;17649;51.836;8.330;2023-07-13T10:28:59;100972.59;;;23.34;nan
30967;BME280;17649;51.836;8.330;2023-07-13T10:32:02;100974.97;;;23.45;nan
30967;BME280;17649;51.836;8.330;2023-07-13T10:35:04;100997.63;;;23.56;nan
30967;BME280;17649;51.836;8.330;2023-07-13T10:38:11;100977.13;;;23.49;nan
30967;BME280;17649;51.836;8.330;2023-07-13T10:41:15;100973.81;;;23.39;nan
30967;BME280;17649;51.836;8.330;2023-07-13T10:44:22;100974.66;;;23.14;nan
30967;BME280;17649;51.836;8.330;2023-07-13T10:47:26;100984.50;;;23.04;nan
30967;BME280;17649;51.836;8.330;2023-07-13T10:50:29;100978.06;;;23.32;nan
30967;BME280;17649;51.836;8.330;2023-07-13T10:53:34;100979.19;;;23.64;nan
30967;BME280;17649;51.836;8.330;2023-07-13T10:56:35;100981.53;;;23.67;nan
30967;BME280;17649;51.836;8.330;2023-07-13T10:59:36;100991.25;;;23.32;nan
30967;BME280;17649;51.836;8.330;2023-07-13T11:02:38;100983.66;;;24.30;nan
30967;BME280;17649;51.836;8.330;2023-07-13T11:05:40;100984.25;;;24.81;nan
30967;BME280;17649;51.836;8.330;2023-07-13T11:11:47;100974.97;;;25.17;nan
30967;BME280;17649;51.836;8.330;2023-07-13T11:18:03;100979.75;;;23.92;nan
30967;BME280;17649;51.836;8.330;2023-07-13T11:24:17;100981.59;;;23.99;nan
30967;BME280;17649;51.836;8.330;2023-07-13T11:27:27;100979.63;;;24.01;nan
30967;BME280;17649;51.836;8.330;2023-07-13T11:30:37;100988.88;;;23.97;nan
30967;BME280;17649;51.836;8.330;2023-07-13T11:36:43;100984.06;;;24.98;nan
30967;BME280;17649;51.836;8.330;2023-07-13T11:39:45;100974.16;;;26.70;nan
30967;BME280;17649;51.836;8.330;2023-07-13T11:42:46;100975.22;;;26.47;nan
30967;BME280;17649;51.836;8.330;2023-07-13T11:45:47;100984.25;;;24.89;nan
30967;BME280;17649;51.836;8.330;2023-07-13T11:48:50;100981.81;;;24.55;nan
30967;BME280;17649;51.836;8.330;2023-07-13T11:51:51;100979.00;;;25.44;nan
30967;BME280;17649;51.836;8.330;2023-07-13T11:54:56;100976.31;;;29.05;nan
30967;BME280;17649;51.836;8.330;2023-07-13T11:57:58;100974.03;;;27.31;nan
30967;BME280;17649;51.836;8.330;2023-07-13T12:01:01;100965.06;;;25.03;nan
30967;BME280;17649;51.836;8.330;2023-07-13T12:04:04;100974.84;;;24.21;nan
30967;BME280;17649;51.836;8.330;2023-07-13T12:07:14;100988.28;;;26.02;nan
30967;BME280;17649;51.836;8.330;2023-07-13T12:10:29;100975.91;;;25.95;nan
30967;BME280;17649;51.836;8.330;2023-07-13T12:13:35;100978.06;;;26.22;nan
30967;BME280;17649;51.836;8.330;2023-07-13T12:16:36;100969.22;;;27.56;nan
30967;BME280;17649;51.836;8.330;2023-07-13T12:19:37;100974.06;;;28.46;nan
30967;BME280;17649;51.836;8.330;2023-07-13T12:22:37;100960.09;;;27.80;nan
30967;BME280;17649;51.836;8.330;2023-07-13T12:25:38;100984.16;;;26.83;nan
30967;BME280;17649;51.836;8.330;2023-07-13T12:28:54;100987.28;;;26.26;nan
30967;BME280;17649;51.836;8.330;2023-07-13T12:31:56;100995.34;;;25.87;nan
30967;BME280;17649;51.836;8.330;2023-07-13T12:35:17;100991.03;;;26.92;nan
30967;BME280;17649;51.836;8.330;2023-07-13T12:38:19;100975.81;;;28.17;nan
30967;BME280;17649;51.836;8.330;2023-07-13T12:41:22;100977.97;;;26.30;nan
30967;BME280;17649;51.836;8.330;2023-07-13T12:44:31;100978.06;;;27.27;nan
30967;BME280;17649;51.836;8.330;2023-07-13T12:47:40;100971.22;;;28.54;nan
30967;BME280;17649;51.836;8.330;2023-07-13T12:50:46;100967.50;;;30.33;nan
30967;BME280;17649;51.836;8.330;2023-07-13T12:53:50;100966.03;;;29.43;nan
30967;BME280;17649;51.836;8.330;2023-07-13T12:56:54;100964.19;;;30.57;nan
30967;BME280;17649;51.836;8.330;2023-07-13T12:59:57;100958.94;;;31.67;nan
30967;BME280;17649;51.836;8.330;2023-07-13T13:03:02;100949.69;;;31.63;nan
30967;BME280;17649;51.836;8.330;2023-07-13T13:09:18;100973.06;;;30.38;nan
30967;BME280;17649;51.836;8.330;2023-07-13T13:12:22;100968.09;;;28.44;nan
30967;BME280;17649;51.836;8.330;2023-07-13T13:15:22;100967.06;;;30.56;nan
30967;BME280;17649;51.836;8.330;2023-07-13T13:18:24;100960.09;;;30.48;nan
30967;BME280;17649;51.836;8.330;2023-07-13T13:21:25;100962.31;;;28.19;nan
30967;BME280;17649;51.836;8.330;2023-07-13T13:24:27;100971.00;;;30.07;nan
30967;BME280;17649;51.836;8.330;2023-07-13T13:27:28;100969.09;;;30.87;nan
30967;BME280;17649;51.836;8.330;2023-07-13T13:30:29;100965.31;;;29.62;nan
30967;BME280;17649;51.836;8.330;2023-07-13T13:33:30;100970.03;;;27.56;nan
30967;BME280;17649;51.836;8.330;2023-07-13T13:36:30;100973.16;;;28.39;nan
30967;BME280;17649;51.836;8.330;2023-07-13T13:39:34;100982.25;;;26.31;nan
30967;BME280;17649;51.836;8.330;2023-07-13T13:42:35;100991.63;;;25.65;nan
30967;BME280;17649;51.836;8.330;2023-07-13T13:45:35;100995.09;;;25.66;nan
30967;BME280;17649;51.836;8.330;2023-07-13T13:48:36;100990.94;;;26.25;nan
30967;BME280;17649;51.836;8.330;2023-07-13T13:51:36;100992.25;;;26.06;nan
30967;BME280;17649;51.836;8.330;2023-07-13T13:54:37;100999.00;;;26.32;nan
30967;BME280;17649;51.836;8.330;2023-07-13T13:57:37;101007.13;;;25.45;nan
30967;BME280;17649;51.836;8.330;2023-07-13T14:00:39;101005.91;;;25.09;nan
30967;BME280;17649;51.836;8.330;2023-07-13T14:03:40;101011.41;;;24.50;nan
30967;BME280;17649;51.836;8.330;2023-07-13T14:06:40;101013.78;;;23.87;nan
30967;BME280;17649;51.836;8.330;2023-07-13T14:09:40;101022.41;;;22.95;nan
30967;BME280;17649;51.836;8.330;2023-07-13T14:12:45;101023.63;;;22.11;nan
30967;BME280;17649;51.836;8.330;2023-07-13T14:15:47;101031.00;;;22.08;nan
30967;BME280;17649;51.836;8.330;2023-07-13T14:18:48;101037.78;;;22.28;nan
30967;BME280;17649;51.836;8.330;2023-07-13T14:21:49;101056.34;;;22.54;nan
30967;BME280;17649;51.836;8.330;2023-07-13T14:24:51;101050.44;;;22.07;nan
30967;BME280;17649;51.836;8.330;2023-07-13T14:27:57;101049.84;;;22.30;nan
30967;BME280;17649;51.836;8.330;2023-07-13T14:30:58;101061.28;;;22.57;nan
30967;BME280;17649;51.836;8.330;2023-07-13T14:33:59;101053.91;;;22.25;nan
30967;BME280;17649;51.836;8.330;2023-07-13T14:36:59;101059.53;;;22.12;nan
30967;BME280;17649;51.836;8.330;2023-07-13T14:40:00;101074.47;;;21.57;nan
30967;BME280;17649;51.836;8.330;2023-07-13T14:43:00;101091.09;;;20.91;nan
30967;BME280;17649;51.836;8.330;2023-07-13T14:46:00;101146.72;;;19.35;nan
30967;BME280;17649;51.836;8.330;2023-07-13T14:49:04;101159.00;;;18.16;nan
30967;BME280;17649;51.836;8.330;2023-07-13T14:55:15;101196.97;;;17.18;nan
30967;BME280;17649;51.836;8.330;2023-07-13T14:58:16;101221.72;;;16.78;nan
30967;BME280;17649;51.836;8.330;2023-07-13T15:01:16;101237.63;;;16.62;nan
30967;BME280;17649;51.836;8.330;2023-07-13T15:04:17;101246.63;;;16.71;nan
30967;BME280;17649;51.836;8.330;2023-07-13T15:07:18;101246.63;;;16.58;nan
30967;BME280;17649;51.836;8.330;2023-07-13T15:10:23;101240.91;;;16.40;nan
30967;BME280;17649;51.836;8.330;2023-07-13T15:13:25;101230.72;;;16.61;nan
30967;BME280;17649;51.836;8.330;2023-07-13T15:16:25;101226.56;;;16.58;nan
30967;BME280;17649;51.836;8.330;2023-07-13T15:19:26;101231.41;;;16.88;nan
30967;BME280;17649;51.836;8.330;2023-07-13T15:22:27;101226.25;;;16.99;nan
30967;BME280;17649;51.836;8.330;2023-07-13T15:25:29;101222.22;;;16.83;nan
30967;BME280;17649;51.836;8.330;2023-07-13T15:28:30;101222.50;;;16.91;nan
30967;BME280;17649;51.836;8.330;2023-07-13T15:31:32;101216.94;;;17.19;nan
30967;BME280;17649;51.836;8.330;2023-07-13T15:34:32;101215.56;;;17.38;nan
30967;BME280;17649;51.836;8.330;2023-07-13T15:37:33;101209.44;;;17.50;nan
30967;BME280;17649;51.836;8.330;2023-07-13T15:40:33;101194.34;;;17.53;nan
30967;BME280;17649;51.836;8.330;2023-07-13T15:43:33;101192.66;;;17.99;nan
30967;BME280;17649;51.836;8.330;2023-07-13T15:46:34;101182.31;;;18.20;nan
30967;BME280;17649;51.836;8.330;2023-07-13T15:49:34;101187.31;;;18.45;nan
30967;BME280;17649;51.836;8.330;2023-07-13T15:52:34;101177.50;;;18.69;nan
30967;BME280;17649;51.836;8.330;2023-07-13T15:55:38;101178.00;;;18.63;nan
30967;BME280;17649;51.836;8.330;2023-07-13T15:58:40;101178.22;;;18.71;nan
30967;BME280;17649;51.836;8.330;2023-07-13T16:01:40;101173.56;;;19.07;nan
30967;BME280;17649;51.836;8.330;2023-07-13T16:04:42;101170.97;;;19.49;nan
30967;BME280;17649;51.836;8.330;2023-07-13T16:07:44;101164.66;;;20.03;nan
30967;BME280;17649;51.836;8.330;2023-07-13T16:10:45;101150.88;;;20.60;nan
30967;BME280;17649;51.836;8.330;2023-07-13T16:13:46;101145.34;;;21.11;nan
30967;BME280;17649;51.836;8.330;2023-07-13T16:16:47;101146.88;;;21.90;nan
30967;BME280;17649;51.836;8.330;2023-07-13T16:19:48;101146.78;;;23.00;nan
30967;BME280;17649;51.836;8.330;2023-07-13T16:22:53;101139.81;;;22.81;nan
30967;BME280;17649;51.836;8.330;2023-07-13T16:25:55;101150.53;;;21.69;nan
30967;BME280;17649;51.836;8.330;2023-07-13T16:28:55;101141.06;;;21.20;nan
30967;BME280;17649;51.836;8.330;2023-07-13T16:35:02;101156.94;;;20.41;nan
30967;BME280;17649;51.836;8.330;2023-07-13T16:38:34;101153.09;;;20.65;nan
30967;BME280;17649;51.836;8.330;2023-07-13T16:41:35;101148.94;;;21.20;nan
30967;BME280;17649;51.836;8.330;2023-07-13T16:44:35;101127.56;;;23.85;nan
30967;BME280;17649;51.836;8.330;2023-07-13T16:47:36;101120.91;;;24.90;nan
30967;BME280;17649;51.836;8.330;2023-07-13T16:50:41;101129.56;;;23.91;nan
30967;BME280;17649;51.836;8.330;2023-07-13T16:53:42;101118.75;;;25.18;nan